sensor_id;sensor_type;location;lat;lon;timestamp;P1;durP1;ratioP1;P2;durP2;ratioP2
45620;SDS011;31345;51.522;10.702;2023-07-20T00:01:47;10.93;;;5.03;;
45620;SDS011;31345;51.522;10.702;2023-07-20T00:04:16;7.15;;;4.75;;
45620;SDS011;31345;51.522;10.702;2023-07-20T00:06:44;9.60;;;4.97;;
45620;SDS011;31345;51.522;10.702;2023-07-20T00:09:12;8.73;;;5.18;;
45620;SDS011;31345;51.522;10.702;2023-07-20T00:11:39;6.53;;;4.93;;
45620;SDS011;31345;51.522;10.702;2023-07-20T00:14:07;7.65;;;5.57;;
45620;SDS011;31345;51.522;10.702;2023-07-20T00:16:35;7.22;;;5.60;;
45620;SDS011;31345;51.522;10.702;2023-07-20T00:19:07;8.95;;;5.63;;
45620;SDS011;31345;51.522;10.702;2023-07-20T00:21:36;8.38;;;5.22;;
45620;SDS011;31345;51.522;10.702;2023-07-20T00:24:06;7.60;;;5.03;;
45620;SDS011;31345;51.522;10.702;2023-07-20T00:26:38;9.80;;;4.22;;
45620;SDS011;31345;51.522;10.702;2023-07-20T00:29:06;6.40;;;5.40;;
45620;SDS011;31345;51.522;10.702;2023-07-20T00:31:34;10.52;;;5.38;;
45620;SDS011;31345;51.522;10.702;2023-07-20T00:34:03;6.47;;;4.85;;
45620;SDS011;31345;51.522;10.702;2023-07-20T00:36:37;9.73;;;5.07;;
45620;SDS011;31345;51.522;10.702;2023-07-20T00:39:05;10.65;;;5.55;;
45620;SDS011;31345;51.522;10.702;2023-07-20T00:41:34;8.05;;;5.38;;
45620;SDS011;31345;51.522;10.702;2023-07-20T00:44:02;7.15;;;5.13;;
45620;SDS011;31345;51.522;10.702;2023-07-20T00:46:35;7.28;;;5.43;;
45620;SDS011;31345;51.522;10.702;2023-07-20T00:49:08;13.55;;;5.80;;
45620;SDS011;31345;51.522;10.702;2023-07-20T00:51:44;7.18;;;5.38;;
45620;SDS011;31345;51.522;10.702;2023-07-20T00:54:16;7.20;;;4.95;;
45620;SDS011;31345;51.522;10.702;2023-07-20T00:56:44;8.25;;;5.72;;
45620;SDS011;31345;51.522;10.702;2023-07-20T00:59:18;15.40;;;6.10;;
45620;SDS011;31345;51.522;10.702;2023-07-20T01:01:45;9.48;;;6.03;;
45620;SDS011;31345;51.522;10.702;2023-07-20T01:04:13;7.70;;;5.88;;
45620;SDS011;31345;51.522;10.702;2023-07-20T01:06:45;8.65;;;6.15;;
45620;SDS011;31345;51.522;10.702;2023-07-20T01:09:26;8.32;;;5.88;;
45620;SDS011;31345;51.522;10.702;2023-07-20T01:12:07;8.57;;;5.18;;
45620;SDS011;31345;51.522;10.702;2023-07-20T01:14:39;9.32;;;5.75;;
45620;SDS011;31345;51.522;10.702;2023-07-20T01:17:07;8.55;;;6.20;;
45620;SDS011;31345;51.522;10.702;2023-07-20T01:19:35;6.65;;;5.45;;
45620;SDS011;31345;51.522;10.702;2023-07-20T01:22:07;8.70;;;5.90;;
45620;SDS011;31345;51.522;10.702;2023-07-20T01:24:45;7.97;;;4.97;;
45620;SDS011;31345;51.522;10.702;2023-07-20T01:30:50;8.02;;;5.28;;
45620;SDS011;31345;51.522;10.702;2023-07-20T01:33:29;8.02;;;5.45;;
45620;SDS011;31345;51.522;10.702;2023-07-20T01:36:05;13.10;;;6.70;;
45620;SDS011;31345;51.522;10.702;2023-07-20T01:38:39;7.82;;;4.10;;
45620;SDS011;31345;51.522;10.702;2023-07-20T01:41:07;8.52;;;4.13;;
45620;SDS011;31345;51.522;10.702;2023-07-20T01:43:41;6.32;;;3.30;;
45620;SDS011;31345;51.522;10.702;2023-07-20T01:46:09;7.22;;;2.72;;
45620;SDS011;31345;51.522;10.702;2023-07-20T01:48:38;4.18;;;1.95;;
45620;SDS011;31345;51.522;10.702;2023-07-20T01:51:11;4.20;;;1.70;;
45620;SDS011;31345;51.522;10.702;2023-07-20T01:53:39;5.38;;;1.83;;
45620;SDS011;31345;51.522;10.702;2023-07-20T01:56:11;3.58;;;2.10;;
45620;SDS011;31345;51.522;10.702;2023-07-20T01:58:44;5.10;;;1.75;;
45620;SDS011;31345;51.522;10.702;2023-07-20T02:01:16;6.40;;;2.72;;
45620;SDS011;31345;51.522;10.702;2023-07-20T02:03:50;3.03;;;1.60;;
45620;SDS011;31345;51.522;10.702;2023-07-20T02:06:23;3.70;;;1.73;;
45620;SDS011;31345;51.522;10.702;2023-07-20T02:08:50;4.53;;;1.80;;
45620;SDS011;31345;51.522;10.702;2023-07-20T02:11:24;7.50;;;2.00;;
45620;SDS011;31345;51.522;10.702;2023-07-20T02:13:51;5.53;;;1.98;;
45620;SDS011;31345;51.522;10.702;2023-07-20T02:16:24;4.20;;;1.90;;
45620;SDS011;31345;51.522;10.702;2023-07-20T02:18:53;4.88;;;2.00;;
45620;SDS011;31345;51.522;10.702;2023-07-20T02:21:22;4.55;;;1.95;;
45620;SDS011;31345;51.522;10.702;2023-07-20T02:23:50;3.55;;;2.20;;
45620;SDS011;31345;51.522;10.702;2023-07-20T02:26:17;4.40;;;2.05;;
45620;SDS011;31345;51.522;10.702;2023-07-20T02:28:45;4.85;;;2.00;;
45620;SDS011;31345;51.522;10.702;2023-07-20T02:31:13;4.43;;;2.08;;
45620;SDS011;31345;51.522;10.702;2023-07-20T02:33:40;5.10;;;2.05;;
45620;SDS011;31345;51.522;10.702;2023-07-20T02:36:09;4.22;;;2.10;;
45620;SDS011;31345;51.522;10.702;2023-07-20T02:38:37;4.65;;;2.13;;
45620;SDS011;31345;51.522;10.702;2023-07-20T02:41:04;3.75;;;2.10;;
45620;SDS011;31345;51.522;10.702;2023-07-20T02:43:37;5.78;;;2.25;;
45620;SDS011;31345;51.522;10.702;2023-07-20T02:46:04;8.40;;;2.53;;
45620;SDS011;31345;51.522;10.702;2023-07-20T02:48:37;6.47;;;2.95;;
45620;SDS011;31345;51.522;10.702;2023-07-20T02:51:11;4.78;;;2.70;;
45620;SDS011;31345;51.522;10.702;2023-07-20T02:53:44;5.25;;;3.05;;
45620;SDS011;31345;51.522;10.702;2023-07-20T02:56:16;4.50;;;2.70;;
45620;SDS011;31345;51.522;10.702;2023-07-20T02:58:45;3.67;;;2.67;;
45620;SDS011;31345;51.522;10.702;2023-07-20T03:01:17;3.90;;;2.80;;
45620;SDS011;31345;51.522;10.702;2023-07-20T03:03:45;4.00;;;3.00;;
45620;SDS011;31345;51.522;10.702;2023-07-20T03:06:15;5.25;;;3.20;;
45620;SDS011;31345;51.522;10.702;2023-07-20T03:08:48;4.72;;;3.35;;
45620;SDS011;31345;51.522;10.702;2023-07-20T03:11:18;5.85;;;3.25;;
45620;SDS011;31345;51.522;10.702;2023-07-20T03:13:47;7.80;;;3.20;;
45620;SDS011;31345;51.522;10.702;2023-07-20T03:16:23;4.55;;;3.33;;
45620;SDS011;31345;51.522;10.702;2023-07-20T03:18:58;4.57;;;3.53;;
45620;SDS011;31345;51.522;10.702;2023-07-20T03:21:32;5.55;;;3.67;;
45620;SDS011;31345;51.522;10.702;2023-07-20T03:24:05;5.30;;;4.13;;
45620;SDS011;31345;51.522;10.702;2023-07-20T03:26:38;8.82;;;3.60;;
45620;SDS011;31345;51.522;10.702;2023-07-20T03:29:12;4.90;;;3.40;;
45620;SDS011;31345;51.522;10.702;2023-07-20T03:31:39;6.85;;;3.35;;
45620;SDS011;31345;51.522;10.702;2023-07-20T03:34:12;4.32;;;3.15;;
45620;SDS011;31345;51.522;10.702;2023-07-20T03:36:41;6.45;;;3.35;;
45620;SDS011;31345;51.522;10.702;2023-07-20T03:39:13;9.88;;;4.07;;
45620;SDS011;31345;51.522;10.702;2023-07-20T03:41:41;5.55;;;3.70;;
45620;SDS011;31345;51.522;10.702;2023-07-20T03:44:14;7.18;;;4.00;;
45620;SDS011;31345;51.522;10.702;2023-07-20T03:46:43;6.00;;;3.92;;
45620;SDS011;31345;51.522;10.702;2023-07-20T03:49:11;7.75;;;4.00;;
45620;SDS011;31345;51.522;10.702;2023-07-20T03:51:38;5.53;;;3.83;;
45620;SDS011;31345;51.522;10.702;2023-07-20T03:54:07;7.28;;;3.67;;
45620;SDS011;31345;51.522;10.702;2023-07-20T03:56:35;5.72;;;4.18;;
45620;SDS011;31345;51.522;10.702;2023-07-20T03:59:03;4.72;;;3.85;;
45620;SDS011;31345;51.522;10.702;2023-07-20T04:01:30;6.68;;;4.18;;
45620;SDS011;31345;51.522;10.702;2023-07-20T04:04:04;5.63;;;4.40;;
45620;SDS011;31345;51.522;10.702;2023-07-20T04:06:38;6.43;;;3.70;;
45620;SDS011;31345;51.522;10.702;2023-07-20T04:12:18;7.53;;;3.83;;
45620;SDS011;31345;51.522;10.702;2023-07-20T04:14:46;4.82;;;4.10;;
45620;SDS011;31345;51.522;10.702;2023-07-20T04:17:19;7.03;;;4.35;;
45620;SDS011;31345;51.522;10.702;2023-07-20T04:19:52;8.35;;;4.45;;
45620;SDS011;31345;51.522;10.702;2023-07-20T04:22:19;5.70;;;4.40;;
45620;SDS011;31345;51.522;10.702;2023-07-20T04:24:53;5.55;;;4.28;;
45620;SDS011;31345;51.522;10.702;2023-07-20T04:27:22;7.18;;;4.82;;
45620;SDS011;31345;51.522;10.702;2023-07-20T04:29:50;7.15;;;4.88;;
45620;SDS011;31345;51.522;10.702;2023-07-20T04:32:22;7.43;;;4.78;;
45620;SDS011;31345;51.522;10.702;2023-07-20T04:34:51;8.50;;;5.43;;
45620;SDS011;31345;51.522;10.702;2023-07-20T04:37:20;10.70;;;5.20;;
45620;SDS011;31345;51.522;10.702;2023-07-20T04:39:53;8.05;;;5.03;;
45620;SDS011;31345;51.522;10.702;2023-07-20T04:42:23;9.98;;;5.32;;
45620;SDS011;31345;51.522;10.702;2023-07-20T04:44:51;6.32;;;5.55;;
45620;SDS011;31345;51.522;10.702;2023-07-20T04:47:19;7.60;;;5.53;;
45620;SDS011;31345;51.522;10.702;2023-07-20T04:49:53;5.88;;;4.85;;
45620;SDS011;31345;51.522;10.702;2023-07-20T04:52:20;6.47;;;5.07;;
45620;SDS011;31345;51.522;10.702;2023-07-20T04:54:49;8.68;;;5.32;;
45620;SDS011;31345;51.522;10.702;2023-07-20T04:57:16;16.08;;;5.72;;
45620;SDS011;31345;51.522;10.702;2023-07-20T04:59:49;8.25;;;5.55;;
45620;SDS011;31345;51.522;10.702;2023-07-20T05:02:17;10.38;;;6.07;;
45620;SDS011;31345;51.522;10.702;2023-07-20T05:04:45;9.18;;;6.30;;
45620;SDS011;31345;51.522;10.702;2023-07-20T05:07:13;10.10;;;6.20;;
45620;SDS011;31345;51.522;10.702;2023-07-20T05:09:41;7.40;;;5.65;;
45620;SDS011;31345;51.522;10.702;2023-07-20T05:12:09;7.13;;;5.88;;
45620;SDS011;31345;51.522;10.702;2023-07-20T05:14:43;11.60;;;6.55;;
45620;SDS011;31345;51.522;10.702;2023-07-20T05:17:18;11.07;;;6.97;;
45620;SDS011;31345;51.522;10.702;2023-07-20T05:19:45;9.07;;;6.47;;
45620;SDS011;31345;51.522;10.702;2023-07-20T05:22:13;8.90;;;5.85;;
45620;SDS011;31345;51.522;10.702;2023-07-20T05:24:41;8.35;;;6.47;;
45620;SDS011;31345;51.522;10.702;2023-07-20T05:27:09;9.00;;;7.03;;
45620;SDS011;31345;51.522;10.702;2023-07-20T05:29:43;9.98;;;7.05;;
45620;SDS011;31345;51.522;10.702;2023-07-20T05:32:11;8.98;;;5.50;;
45620;SDS011;31345;51.522;10.702;2023-07-20T05:34:40;7.47;;;6.53;;
45620;SDS011;31345;51.522;10.702;2023-07-20T05:37:08;8.10;;;6.13;;
45620;SDS011;31345;51.522;10.702;2023-07-20T05:39:36;10.77;;;6.25;;
45620;SDS011;31345;51.522;10.702;2023-07-20T05:42:08;7.80;;;5.53;;
45620;SDS011;31345;51.522;10.702;2023-07-20T05:44:36;10.07;;;5.88;;
45620;SDS011;31345;51.522;10.702;2023-07-20T05:47:03;8.30;;;6.00;;
45620;SDS011;31345;51.522;10.702;2023-07-20T05:49:32;7.53;;;5.63;;
45620;SDS011;31345;51.522;10.702;2023-07-20T05:52:00;7.72;;;5.57;;
45620;SDS011;31345;51.522;10.702;2023-07-20T05:54:28;6.30;;;5.32;;
45620;SDS011;31345;51.522;10.702;2023-07-20T05:57:01;8.30;;;5.63;;
45620;SDS011;31345;51.522;10.702;2023-07-20T05:59:28;7.78;;;5.45;;
45620;SDS011;31345;51.522;10.702;2023-07-20T06:01:56;7.22;;;4.60;;
45620;SDS011;31345;51.522;10.702;2023-07-20T06:04:24;7.25;;;5.22;;
45620;SDS011;31345;51.522;10.702;2023-07-20T06:06:52;8.63;;;5.47;;
45620;SDS011;31345;51.522;10.702;2023-07-20T06:09:21;7.90;;;5.43;;
45620;SDS011;31345;51.522;10.702;2023-07-20T06:11:53;7.32;;;4.95;;
45620;SDS011;31345;51.522;10.702;2023-07-20T06:14:22;10.25;;;4.95;;
45620;SDS011;31345;51.522;10.702;2023-07-20T06:16:50;8.02;;;4.30;;
45620;SDS011;31345;51.522;10.702;2023-07-20T06:19:17;6.88;;;5.63;;
45620;SDS011;31345;51.522;10.702;2023-07-20T06:21:45;7.28;;;4.50;;
45620;SDS011;31345;51.522;10.702;2023-07-20T06:24:13;6.75;;;4.50;;
45620;SDS011;31345;51.522;10.702;2023-07-20T06:26:46;6.72;;;4.32;;
45620;SDS011;31345;51.522;10.702;2023-07-20T06:29:14;6.93;;;4.88;;
45620;SDS011;31345;51.522;10.702;2023-07-20T06:31:46;5.10;;;4.38;;
45620;SDS011;31345;51.522;10.702;2023-07-20T06:34:20;8.75;;;4.55;;
45620;SDS011;31345;51.522;10.702;2023-07-20T06:36:48;7.78;;;4.97;;
45620;SDS011;31345;51.522;10.702;2023-07-20T06:39:20;6.93;;;4.72;;
45620;SDS011;31345;51.522;10.702;2023-07-20T06:41:49;6.80;;;4.50;;
45620;SDS011;31345;51.522;10.702;2023-07-20T06:44:17;6.82;;;6.00;;
45620;SDS011;31345;51.522;10.702;2023-07-20T06:46:50;8.60;;;5.50;;
45620;SDS011;31345;51.522;10.702;2023-07-20T06:49:25;7.72;;;5.90;;
45620;SDS011;31345;51.522;10.702;2023-07-20T06:51:58;7.50;;;6.18;;
45620;SDS011;31345;51.522;10.702;2023-07-20T06:54:31;9.38;;;7.93;;
45620;SDS011;31345;51.522;10.702;2023-07-20T06:57:00;13.45;;;7.53;;
45620;SDS011;31345;51.522;10.702;2023-07-20T06:59:28;11.63;;;8.25;;
45620;SDS011;31345;51.522;10.702;2023-07-20T07:01:55;9.68;;;7.57;;
45620;SDS011;31345;51.522;10.702;2023-07-20T07:04:28;10.90;;;8.32;;
45620;SDS011;31345;51.522;10.702;2023-07-20T07:07:01;10.52;;;7.80;;
45620;SDS011;31345;51.522;10.702;2023-07-20T07:09:36;12.95;;;8.20;;
45620;SDS011;31345;51.522;10.702;2023-07-20T07:12:06;13.90;;;8.48;;
45620;SDS011;31345;51.522;10.702;2023-07-20T07:14:35;12.10;;;8.30;;
45620;SDS011;31345;51.522;10.702;2023-07-20T07:17:02;11.20;;;9.38;;
45620;SDS011;31345;51.522;10.702;2023-07-20T07:19:30;10.88;;;8.70;;
45620;SDS011;31345;51.522;10.702;2023-07-20T07:21:58;12.18;;;10.55;;
45620;SDS011;31345;51.522;10.702;2023-07-20T07:24:30;11.10;;;9.18;;
45620;SDS011;31345;51.522;10.702;2023-07-20T07:27:01;11.93;;;10.03;;
45620;SDS011;31345;51.522;10.702;2023-07-20T07:29:31;14.02;;;9.05;;
45620;SDS011;31345;51.522;10.702;2023-07-20T07:31:58;14.57;;;11.55;;
45620;SDS011;31345;51.522;10.702;2023-07-20T07:34:31;12.48;;;9.25;;
45620;SDS011;31345;51.522;10.702;2023-07-20T07:37:00;11.65;;;9.57;;
45620;SDS011;31345;51.522;10.702;2023-07-20T07:39:28;14.27;;;10.45;;
45620;SDS011;31345;51.522;10.702;2023-07-20T07:41:56;13.32;;;10.80;;
45620;SDS011;31345;51.522;10.702;2023-07-20T07:44:30;15.00;;;11.05;;
45620;SDS011;31345;51.522;10.702;2023-07-20T07:46:58;17.60;;;12.23;;
45620;SDS011;31345;51.522;10.702;2023-07-20T07:49:26;17.13;;;11.80;;
45620;SDS011;31345;51.522;10.702;2023-07-20T07:51:55;17.13;;;11.60;;
45620;SDS011;31345;51.522;10.702;2023-07-20T07:54:22;14.43;;;11.55;;
45620;SDS011;31345;51.522;10.702;2023-07-20T07:56:50;12.70;;;11.45;;
45620;SDS011;31345;51.522;10.702;2023-07-20T07:59:18;12.98;;;10.25;;
45620;SDS011;31345;51.522;10.702;2023-07-20T08:01:52;13.35;;;11.13;;
45620;SDS011;31345;51.522;10.702;2023-07-20T08:04:26;14.77;;;11.25;;
45620;SDS011;31345;51.522;10.702;2023-07-20T08:06:58;12.70;;;11.13;;
45620;SDS011;31345;51.522;10.702;2023-07-20T08:09:27;13.88;;;11.05;;
45620;SDS011;31345;51.522;10.702;2023-07-20T08:11:54;16.60;;;12.55;;
45620;SDS011;31345;51.522;10.702;2023-07-20T08:14:27;13.35;;;10.93;;
45620;SDS011;31345;51.522;10.702;2023-07-20T08:16:56;14.32;;;11.30;;
45620;SDS011;31345;51.522;10.702;2023-07-20T08:19:24;13.90;;;11.20;;
45620;SDS011;31345;51.522;10.702;2023-07-20T08:21:51;13.15;;;9.73;;
45620;SDS011;31345;51.522;10.702;2023-07-20T08:24:19;8.88;;;7.97;;
45620;SDS011;31345;51.522;10.702;2023-07-20T08:26:52;7.75;;;6.88;;
45620;SDS011;31345;51.522;10.702;2023-07-20T08:29:20;9.43;;;6.50;;
45620;SDS011;31345;51.522;10.702;2023-07-20T08:31:53;7.38;;;6.55;;
45620;SDS011;31345;51.522;10.702;2023-07-20T08:34:22;6.97;;;6.03;;
45620;SDS011;31345;51.522;10.702;2023-07-20T08:36:50;9.18;;;5.43;;
45620;SDS011;31345;51.522;10.702;2023-07-20T08:39:17;7.45;;;5.32;;
45620;SDS011;31345;51.522;10.702;2023-07-20T08:41:46;6.32;;;5.43;;
45620;SDS011;31345;51.522;10.702;2023-07-20T08:44:13;7.60;;;4.75;;
45620;SDS011;31345;51.522;10.702;2023-07-20T08:46:41;5.80;;;3.72;;
45620;SDS011;31345;51.522;10.702;2023-07-20T08:49:11;5.65;;;3.60;;
45620;SDS011;31345;51.522;10.702;2023-07-20T08:51:40;4.43;;;2.58;;
45620;SDS011;31345;51.522;10.702;2023-07-20T08:54:09;2.58;;;2.13;;
45620;SDS011;31345;51.522;10.702;2023-07-20T08:56:39;4.10;;;2.20;;
45620;SDS011;31345;51.522;10.702;2023-07-20T08:59:08;2.78;;;2.20;;
45620;SDS011;31345;51.522;10.702;2023-07-20T09:01:36;2.65;;;2.10;;
45620;SDS011;31345;51.522;10.702;2023-07-20T09:04:11;2.10;;;1.73;;
45620;SDS011;31345;51.522;10.702;2023-07-20T09:06:45;2.63;;;1.60;;
45620;SDS011;31345;51.522;10.702;2023-07-20T09:09:14;2.88;;;1.98;;
45620;SDS011;31345;51.522;10.702;2023-07-20T09:11:41;2.15;;;1.60;;
45620;SDS011;31345;51.522;10.702;2023-07-20T09:14:14;3.03;;;1.90;;
45620;SDS011;31345;51.522;10.702;2023-07-20T09:16:47;2.22;;;1.52;;
45620;SDS011;31345;51.522;10.702;2023-07-20T09:19:21;2.13;;;1.60;;
45620;SDS011;31345;51.522;10.702;2023-07-20T09:21:55;1.95;;;1.15;;
45620;SDS011;31345;51.522;10.702;2023-07-20T09:24:22;1.85;;;1.30;;
45620;SDS011;31345;51.522;10.702;2023-07-20T09:26:51;2.15;;;1.40;;
45620;SDS011;31345;51.522;10.702;2023-07-20T09:29:23;2.67;;;1.45;;
45620;SDS011;31345;51.522;10.702;2023-07-20T09:32:00;1.67;;;1.08;;
45620;SDS011;31345;51.522;10.702;2023-07-20T09:34:34;3.25;;;1.40;;
45620;SDS011;31345;51.522;10.702;2023-07-20T09:37:08;1.73;;;1.00;;
45620;SDS011;31345;51.522;10.702;2023-07-20T09:39:43;2.10;;;1.27;;
45620;SDS011;31345;51.522;10.702;2023-07-20T09:42:16;1.73;;;1.10;;
45620;SDS011;31345;51.522;10.702;2023-07-20T09:44:50;1.80;;;0.80;;
45620;SDS011;31345;51.522;10.702;2023-07-20T09:47:23;1.67;;;1.08;;
45620;SDS011;31345;51.522;10.702;2023-07-20T09:49:58;1.15;;;0.80;;
45620;SDS011;31345;51.522;10.702;2023-07-20T09:52:28;1.73;;;0.82;;
45620;SDS011;31345;51.522;10.702;2023-07-20T09:54:56;1.75;;;0.88;;
45620;SDS011;31345;51.522;10.702;2023-07-20T09:57:24;1.42;;;0.80;;
45620;SDS011;31345;51.522;10.702;2023-07-20T09:59:58;1.60;;;1.02;;
45620;SDS011;31345;51.522;10.702;2023-07-20T10:02:27;0.93;;;0.80;;
45620;SDS011;31345;51.522;10.702;2023-07-20T10:05:01;0.88;;;0.60;;
45620;SDS011;31345;51.522;10.702;2023-07-20T10:07:39;1.45;;;0.70;;
45620;SDS011;31345;51.522;10.702;2023-07-20T10:10:10;1.80;;;1.00;;
45620;SDS011;31345;51.522;10.702;2023-07-20T10:12:40;1.38;;;0.70;;
45620;SDS011;31345;51.522;10.702;2023-07-20T10:15:10;3.05;;;0.70;;
45620;SDS011;31345;51.522;10.702;2023-07-20T10:17:44;1.10;;;0.55;;
45620;SDS011;31345;51.522;10.702;2023-07-20T10:20:21;3.03;;;0.70;;
45620;SDS011;31345;51.522;10.702;2023-07-20T10:22:52;1.17;;;0.60;;
45620;SDS011;31345;51.522;10.702;2023-07-20T10:25:21;0.47;;;0.40;;
45620;SDS011;31345;51.522;10.702;2023-07-20T10:27:50;1.13;;;0.52;;
45620;SDS011;31345;51.522;10.702;2023-07-20T10:30:18;1.80;;;0.70;;
45620;SDS011;31345;51.522;10.702;2023-07-20T10:32:51;1.60;;;0.50;;
45620;SDS011;31345;51.522;10.702;2023-07-20T10:35:20;1.20;;;0.88;;
45620;SDS011;31345;51.522;10.702;2023-07-20T10:37:53;2.35;;;0.82;;
45620;SDS011;31345;51.522;10.702;2023-07-20T10:40:28;1.27;;;0.68;;
45620;SDS011;31345;51.522;10.702;2023-07-20T10:43:03;1.85;;;0.85;;
45620;SDS011;31345;51.522;10.702;2023-07-20T10:45:34;1.02;;;0.65;;
45620;SDS011;31345;51.522;10.702;2023-07-20T10:48:15;0.88;;;0.60;;
45620;SDS011;31345;51.522;10.702;2023-07-20T10:51:09;2.28;;;0.70;;
45620;SDS011;31345;51.522;10.702;2023-07-20T10:53:44;1.00;;;0.45;;
45620;SDS011;31345;51.522;10.702;2023-07-20T10:56:19;0.40;;;0.40;;
45620;SDS011;31345;51.522;10.702;2023-07-20T10:58:55;3.88;;;0.70;;
45620;SDS011;31345;51.522;10.702;2023-07-20T11:01:27;1.42;;;0.70;;
45620;SDS011;31345;51.522;10.702;2023-07-20T11:03:57;0.73;;;0.60;;
45620;SDS011;31345;51.522;10.702;2023-07-20T11:06:36;0.82;;;0.47;;
45620;SDS011;31345;51.522;10.702;2023-07-20T11:09:09;2.05;;;0.80;;
45620;SDS011;31345;51.522;10.702;2023-07-20T11:11:41;1.38;;;0.57;;
45620;SDS011;31345;51.522;10.702;2023-07-20T11:14:20;0.95;;;0.70;;
45620;SDS011;31345;51.522;10.702;2023-07-20T11:16:53;0.60;;;0.50;;
45620;SDS011;31345;51.522;10.702;2023-07-20T11:19:26;2.15;;;0.60;;
45620;SDS011;31345;51.522;10.702;2023-07-20T11:21:54;1.85;;;0.60;;
45620;SDS011;31345;51.522;10.702;2023-07-20T11:24:24;0.63;;;0.60;;
45620;SDS011;31345;51.522;10.702;2023-07-20T11:26:56;1.13;;;0.60;;
45620;SDS011;31345;51.522;10.702;2023-07-20T11:29:24;1.13;;;0.60;;
45620;SDS011;31345;51.522;10.702;2023-07-20T11:31:52;0.80;;;0.50;;
45620;SDS011;31345;51.522;10.702;2023-07-20T11:34:20;1.92;;;0.80;;
45620;SDS011;31345;51.522;10.702;2023-07-20T11:36:49;2.85;;;0.60;;
45620;SDS011;31345;51.522;10.702;2023-07-20T11:39:23;1.83;;;0.70;;
45620;SDS011;31345;51.522;10.702;2023-07-20T11:41:57;2.13;;;0.68;;
45620;SDS011;31345;51.522;10.702;2023-07-20T11:44:26;0.90;;;0.50;;
45620;SDS011;31345;51.522;10.702;2023-07-20T11:47:00;1.45;;;0.50;;
45620;SDS011;31345;51.522;10.702;2023-07-20T11:49:29;1.00;;;0.55;;
45620;SDS011;31345;51.522;10.702;2023-07-20T11:52:03;1.30;;;0.50;;
45620;SDS011;31345;51.522;10.702;2023-07-20T11:54:32;1.30;;;0.43;;
45620;SDS011;31345;51.522;10.702;2023-07-20T11:57:01;3.00;;;0.60;;
45620;SDS011;31345;51.522;10.702;2023-07-20T11:59:29;0.85;;;0.50;;
45620;SDS011;31345;51.522;10.702;2023-07-20T12:01:57;1.23;;;0.50;;
45620;SDS011;31345;51.522;10.702;2023-07-20T12:04:25;1.88;;;0.70;;
45620;SDS011;31345;51.522;10.702;2023-07-20T12:06:53;1.50;;;0.50;;
45620;SDS011;31345;51.522;10.702;2023-07-20T12:09:21;1.00;;;0.52;;
45620;SDS011;31345;51.522;10.702;2023-07-20T12:11:50;1.92;;;0.70;;
45620;SDS011;31345;51.522;10.702;2023-07-20T12:14:24;2.25;;;0.60;;
45620;SDS011;31345;51.522;10.702;2023-07-20T12:16:57;1.23;;;0.63;;
45620;SDS011;31345;51.522;10.702;2023-07-20T12:19:30;4.00;;;0.80;;
45620;SDS011;31345;51.522;10.702;2023-07-20T12:21:59;1.27;;;0.60;;
45620;SDS011;31345;51.522;10.702;2023-07-20T12:24:27;1.38;;;0.60;;
45620;SDS011;31345;51.522;10.702;2023-07-20T12:26:57;1.25;;;0.57;;
45620;SDS011;31345;51.522;10.702;2023-07-20T12:29:25;1.52;;;0.63;;
45620;SDS011;31345;51.522;10.702;2023-07-20T12:31:52;1.55;;;0.63;;
45620;SDS011;31345;51.522;10.702;2023-07-20T12:34:20;1.33;;;0.70;;
45620;SDS011;31345;51.522;10.702;2023-07-20T12:36:48;0.85;;;0.52;;
45620;SDS011;31345;51.522;10.702;2023-07-20T12:39:15;0.90;;;0.60;;
45620;SDS011;31345;51.522;10.702;2023-07-20T12:41:43;0.80;;;0.55;;
45620;SDS011;31345;51.522;10.702;2023-07-20T12:44:12;1.38;;;0.50;;
45620;SDS011;31345;51.522;10.702;2023-07-20T12:46:39;1.60;;;0.57;;
45620;SDS011;31345;51.522;10.702;2023-07-20T12:49:12;2.90;;;1.20;;
45620;SDS011;31345;51.522;10.702;2023-07-20T12:51:40;1.42;;;0.60;;
45620;SDS011;31345;51.522;10.702;2023-07-20T12:54:08;5.47;;;1.33;;
45620;SDS011;31345;51.522;10.702;2023-07-20T12:56:35;2.33;;;0.63;;
45620;SDS011;31345;51.522;10.702;2023-07-20T12:59:03;7.22;;;1.80;;
45620;SDS011;31345;51.522;10.702;2023-07-20T13:01:38;3.55;;;0.65;;
45620;SDS011;31345;51.522;10.702;2023-07-20T13:04:12;1.63;;;0.70;;
45620;SDS011;31345;51.522;10.702;2023-07-20T13:06:40;3.13;;;0.80;;
45620;SDS011;31345;51.522;10.702;2023-07-20T13:09:12;3.55;;;1.13;;
45620;SDS011;31345;51.522;10.702;2023-07-20T13:11:45;3.20;;;0.90;;
45620;SDS011;31345;51.522;10.702;2023-07-20T13:14:13;1.58;;;0.82;;
45620;SDS011;31345;51.522;10.702;2023-07-20T13:16:42;0.88;;;0.50;;
45620;SDS011;31345;51.522;10.702;2023-07-20T13:19:09;1.20;;;0.70;;
45620;SDS011;31345;51.522;10.702;2023-07-20T13:21:37;1.02;;;0.60;;
45620;SDS011;31345;51.522;10.702;2023-07-20T13:24:05;1.65;;;0.50;;
45620;SDS011;31345;51.522;10.702;2023-07-20T13:26:33;1.10;;;0.73;;
45620;SDS011;31345;51.522;10.702;2023-07-20T13:29:00;0.77;;;0.60;;
45620;SDS011;31345;51.522;10.702;2023-07-20T13:31:33;3.00;;;0.90;;
45620;SDS011;31345;51.522;10.702;2023-07-20T13:34:02;1.80;;;0.68;;
45620;SDS011;31345;51.522;10.702;2023-07-20T13:36:30;0.88;;;0.60;;
45620;SDS011;31345;51.522;10.702;2023-07-20T13:39:03;3.42;;;0.60;;
45620;SDS011;31345;51.522;10.702;2023-07-20T13:41:31;0.98;;;0.70;;
45620;SDS011;31345;51.522;10.702;2023-07-20T13:43:59;2.58;;;0.82;;
45620;SDS011;31345;51.522;10.702;2023-07-20T13:46:26;0.63;;;0.50;;
45620;SDS011;31345;51.522;10.702;2023-07-20T13:48:59;2.42;;;1.00;;
45620;SDS011;31345;51.522;10.702;2023-07-20T13:51:33;1.02;;;0.50;;
45620;SDS011;31345;51.522;10.702;2023-07-20T13:54:06;2.90;;;0.90;;
45620;SDS011;31345;51.522;10.702;2023-07-20T13:56:38;0.70;;;0.55;;
45620;SDS011;31345;51.522;10.702;2023-07-20T13:59:11;0.93;;;0.60;;
45620;SDS011;31345;51.522;10.702;2023-07-20T14:01:43;1.02;;;0.60;;
45620;SDS011;31345;51.522;10.702;2023-07-20T14:04:11;1.35;;;0.73;;
45620;SDS011;31345;51.522;10.702;2023-07-20T14:06:40;2.72;;;0.65;;
45620;SDS011;31345;51.522;10.702;2023-07-20T14:09:12;1.17;;;0.68;;
45620;SDS011;31345;51.522;10.702;2023-07-20T14:11:40;0.80;;;0.50;;
45620;SDS011;31345;51.522;10.702;2023-07-20T14:14:13;1.55;;;0.70;;
45620;SDS011;31345;51.522;10.702;2023-07-20T14:16:40;1.02;;;0.65;;
45620;SDS011;31345;51.522;10.702;2023-07-20T14:19:08;0.57;;;0.40;;
45620;SDS011;31345;51.522;10.702;2023-07-20T14:21:36;2.78;;;0.68;;
45620;SDS011;31345;51.522;10.702;2023-07-20T14:24:05;0.90;;;0.70;;
45620;SDS011;31345;51.522;10.702;2023-07-20T14:26:33;2.60;;;0.70;;
45620;SDS011;31345;51.522;10.702;2023-07-20T14:29:01;1.08;;;0.60;;
45620;SDS011;31345;51.522;10.702;2023-07-20T14:31:34;1.15;;;0.70;;
45620;SDS011;31345;51.522;10.702;2023-07-20T14:34:06;1.02;;;0.60;;
45620;SDS011;31345;51.522;10.702;2023-07-20T14:36:39;0.77;;;0.60;;
45620;SDS011;31345;51.522;10.702;2023-07-20T14:39:08;1.00;;;0.60;;
45620;SDS011;31345;51.522;10.702;2023-07-20T14:41:35;2.10;;;0.95;;
45620;SDS011;31345;51.522;10.702;2023-07-20T14:44:08;1.65;;;0.55;;
45620;SDS011;31345;51.522;10.702;2023-07-20T14:46:41;0.88;;;0.57;;
45620;SDS011;31345;51.522;10.702;2023-07-20T14:49:13;1.20;;;0.77;;
45620;SDS011;31345;51.522;10.702;2023-07-20T14:51:46;1.38;;;0.60;;
45620;SDS011;31345;51.522;10.702;2023-07-20T14:54:15;2.67;;;0.65;;
45620;SDS011;31345;51.522;10.702;2023-07-20T14:56:48;1.08;;;0.50;;